createdAt,value
2023-02-18T00:01:24.926Z,13.43
2023-02-18T00:03:53.262Z,11.13
2023-02-18T00:06:23.284Z,13.50
2023-02-18T00:08:52.201Z,10.77
2023-02-18T00:11:22.878Z,10.73
2023-02-18T00:13:52.201Z,11.37
2023-02-18T00:16:19.987Z,9.40
2023-02-18T00:18:47.853Z,12.17
2023-02-18T00:21:16.013Z,11.83
2023-02-18T00:23:44.244Z,13.00
2023-02-18T00:26:13.851Z,10.33
2023-02-18T00:28:43.935Z,14.33
2023-02-18T00:31:14.148Z,10.47
2023-02-18T00:33:42.727Z,12.60
2023-02-18T00:36:12.670Z,8.03
2023-02-18T00:38:40.895Z,10.47
2023-02-18T00:41:08.748Z,11.20
2023-02-18T00:43:36.527Z,11.77
2023-02-18T00:46:06.620Z,11.53
2023-02-18T00:48:35.600Z,12.07
2023-02-18T00:51:03.416Z,12.33
2023-02-18T00:53:31.812Z,12.80
2023-02-18T00:55:59.885Z,10.70
2023-02-18T00:58:28.334Z,6.63
2023-02-18T01:00:56.792Z,9.27
2023-02-18T01:03:26.202Z,13.67
2023-02-18T01:05:54.657Z,12.27
2023-02-18T01:08:23.436Z,14.17
2023-02-18T01:10:55.166Z,12.97
2023-02-18T01:13:23.913Z,13.03
2023-02-18T01:15:51.876Z,11.80
2023-02-18T01:18:20.220Z,15.77
2023-02-18T01:20:49.849Z,11.70
2023-02-18T01:23:18.605Z,9.80
2023-02-18T01:25:47.205Z,13.87
2023-02-18T01:28:16.200Z,12.23
2023-02-18T01:30:44.191Z,9.03
2023-02-18T01:33:12.327Z,10.20
2023-02-18T01:35:41.339Z,15.20
2023-02-18T01:38:11.472Z,11.90
2023-02-18T01:40:47.803Z,13.47
2023-02-18T01:43:16.713Z,10.83
2023-02-18T01:46:09.187Z,14.13
2023-02-18T01:48:41.066Z,14.13
2023-02-18T01:51:13.753Z,13.47
2023-02-18T01:53:50.101Z,13.87
2023-02-18T01:56:25.070Z,14.57
2023-02-18T01:58:56.229Z,11.13
2023-02-18T02:01:25.253Z,12.00
2023-02-18T02:03:53.024Z,12.00
2023-02-18T02:06:23.705Z,10.93
2023-02-18T02:08:57.072Z,13.57
2023-02-18T02:11:36.592Z,13.93
2023-02-18T02:14:17.836Z,13.53
2023-02-18T02:16:55.665Z,15.37
2023-02-18T02:19:47.912Z,10.10
2023-02-18T02:22:44.326Z,11.37
2023-02-18T02:25:29.200Z,12.00
2023-02-18T02:28:38.425Z,9.23
2023-02-18T02:31:40.691Z,9.77
2023-02-18T02:34:30.061Z,9.60
2023-02-18T02:37:09.549Z,11.13
2023-02-18T02:39:49.134Z,9.60
2023-02-18T02:42:26.693Z,7.57
2023-02-18T02:44:58.409Z,5.87
2023-02-18T02:47:34.594Z,6.87
2023-02-18T02:50:07.653Z,5.50
2023-02-18T02:52:40.917Z,11.13
2023-02-18T02:55:11.617Z,10.03
2023-02-18T02:57:45.974Z,10.10
2023-02-18T03:00:15.854Z,11.70
2023-02-18T03:03:07.184Z,11.47
2023-02-18T03:05:48.737Z,10.17
2023-02-18T03:08:40.153Z,8.03
2023-02-18T03:11:10.901Z,8.07
2023-02-18T03:13:54.580Z,9.13
2023-02-18T03:16:28.461Z,8.23
2023-02-18T03:19:04.691Z,8.87
2023-02-18T03:21:39.108Z,8.73
2023-02-18T03:24:13.813Z,7.20
2023-02-18T03:26:50.454Z,10.50
2023-02-18T03:29:20.166Z,8.97
2023-02-18T03:31:52.352Z,8.07
2023-02-18T03:34:26.683Z,6.93
2023-02-18T03:36:57.279Z,6.93
2023-02-18T03:39:28.356Z,4.77
2023-02-18T03:41:56.224Z,7.63
2023-02-18T03:44:25.740Z,4.50
2023-02-18T03:46:54.201Z,6.37
2023-02-18T03:49:21.999Z,6.07
2023-02-18T03:51:49.892Z,5.00
2023-02-18T03:54:19.092Z,5.43
2023-02-18T03:56:47.162Z,5.43
2023-02-18T03:59:14.960Z,6.40
2023-02-18T04:01:42.843Z,6.00
2023-02-18T04:04:10.753Z,10.00
2023-02-18T04:06:38.479Z,7.53
2023-02-18T04:09:09.165Z,7.33
2023-02-18T04:11:40.604Z,8.13
2023-02-18T04:14:09.096Z,11.57
2023-02-18T04:16:37.138Z,6.70
2023-02-18T04:19:05.114Z,9.43
2023-02-18T04:21:33.212Z,10.07
2023-02-18T04:24:01.377Z,12.17
2023-02-18T04:26:29.241Z,7.43
2023-02-18T04:28:58.408Z,8.60
2023-02-18T04:31:26.328Z,9.07
2023-02-18T04:33:54.217Z,10.30
2023-02-18T04:36:22.124Z,9.20
2023-02-18T04:38:49.954Z,9.53
2023-02-18T04:41:17.741Z,11.97
2023-02-18T04:43:45.528Z,6.13
2023-02-18T04:46:14.848Z,7.20
2023-02-18T04:48:42.782Z,8.43
2023-02-18T04:51:10.934Z,8.27
2023-02-18T04:53:38.732Z,6.03
2023-02-18T04:56:07.164Z,10.33
2023-02-18T04:58:35.250Z,6.97
2023-02-18T05:01:04.222Z,7.70
2023-02-18T05:03:34.155Z,7.23
2023-02-18T05:06:02.116Z,11.03
2023-02-18T05:08:30.195Z,12.17
2023-02-18T05:10:57.964Z,11.37
2023-02-18T05:13:25.819Z,10.63
2023-02-18T05:15:54.024Z,9.40
2023-02-18T05:18:21.841Z,7.70
2023-02-18T05:20:51.007Z,9.43
2023-02-18T05:23:20.232Z,14.80
2023-02-18T05:25:48.489Z,10.73
2023-02-18T05:28:16.251Z,7.87
2023-02-18T05:30:44.036Z,11.63
2023-02-18T05:33:12.053Z,10.30
2023-02-18T05:35:39.888Z,12.23
2023-02-18T05:38:10.018Z,11.43
2023-02-18T05:40:37.843Z,10.67
2023-02-18T05:43:05.807Z,13.13
2023-02-18T05:45:33.790Z,9.80
2023-02-18T05:48:01.591Z,14.03
2023-02-18T05:50:29.497Z,13.30
2023-02-18T05:52:57.434Z,11.83
2023-02-18T05:55:26.661Z,14.40
2023-02-18T05:57:54.592Z,10.13
2023-02-18T06:00:22.862Z,16.23
2023-02-18T06:02:50.883Z,15.67
2023-02-18T06:05:18.957Z,12.43
2023-02-18T06:07:46.758Z,13.83
2023-02-18T06:10:14.667Z,15.97
2023-02-18T06:12:43.912Z,16.60
2023-02-18T06:15:12.250Z,13.27
2023-02-18T06:17:40.002Z,14.27
2023-02-18T06:20:09.145Z,14.20
2023-02-18T06:22:37.000Z,12.30
2023-02-18T06:25:04.856Z,9.03
2023-02-18T06:27:32.647Z,15.93
2023-02-18T06:30:01.872Z,10.80
2023-02-18T06:32:29.728Z,10.53
2023-02-18T06:34:57.630Z,16.63
2023-02-18T06:37:25.502Z,8.20
2023-02-18T06:39:53.278Z,7.83
2023-02-18T06:42:21.022Z,9.67
2023-02-18T06:44:48.770Z,12.43
2023-02-18T06:47:20.333Z,8.00
2023-02-18T06:49:48.161Z,13.97
2023-02-18T06:52:16.018Z,14.90
2023-02-18T06:54:43.883Z,13.30
2023-02-18T06:57:12.032Z,8.00
2023-02-18T06:59:39.835Z,12.47
2023-02-18T07:02:07.775Z,19.03
2023-02-18T07:04:36.921Z,17.90
2023-02-18T07:07:04.946Z,11.57
2023-02-18T07:09:33.219Z,12.13
2023-02-18T07:12:01.101Z,10.27
2023-02-18T07:14:29.128Z,13.47
2023-02-18T07:16:57.009Z,9.80
2023-02-18T07:19:24.820Z,11.27
2023-02-18T07:21:54.409Z,12.03
2023-02-18T07:24:22.129Z,10.80
2023-02-18T07:26:49.864Z,10.93
2023-02-18T07:29:17.807Z,14.97
2023-02-18T07:31:45.739Z,11.90
2023-02-18T07:34:13.598Z,10.80
2023-02-18T07:36:41.356Z,17.60
2023-02-18T07:39:10.458Z,14.27
2023-02-18T07:41:38.314Z,12.37
2023-02-18T07:44:06.695Z,15.37
2023-02-18T07:46:34.509Z,15.07
2023-02-18T07:49:02.284Z,7.93
2023-02-18T07:51:30.117Z,13.77
2023-02-18T07:53:57.951Z,9.93
2023-02-18T07:56:27.570Z,8.87
2023-02-18T07:58:55.377Z,17.77
2023-02-18T08:01:23.227Z,13.07
2023-02-18T08:03:51.199Z,9.27
2023-02-18T08:06:23.716Z,13.10
2023-02-18T08:08:51.833Z,13.10
2023-02-18T08:11:19.966Z,15.03
2023-02-18T08:13:49.461Z,12.20
2023-02-18T08:16:17.430Z,10.07
2023-02-18T08:18:45.558Z,15.67
2023-02-18T08:21:13.588Z,9.43
2023-02-18T08:23:41.653Z,14.57
2023-02-18T08:26:09.819Z,8.50
2023-02-18T08:28:38.032Z,10.90
2023-02-18T08:31:07.640Z,9.43
2023-02-18T08:33:35.574Z,12.07
2023-02-18T08:36:10.512Z,6.37
2023-02-18T08:38:38.708Z,9.97
2023-02-18T08:41:09.212Z,8.20
2023-02-18T08:43:37.516Z,10.60
2023-02-18T08:46:07.355Z,13.67
2023-02-18T08:48:35.399Z,10.73
2023-02-18T08:51:13.355Z,7.73
2023-02-18T08:53:41.287Z,9.90
2023-02-18T08:56:10.181Z,10.07
2023-02-18T08:58:38.283Z,7.53
2023-02-18T09:01:10.337Z,11.90
2023-02-18T09:03:38.485Z,12.13
2023-02-18T09:06:06.687Z,9.10
2023-02-18T09:08:34.562Z,12.63
2023-02-18T09:11:05.549Z,17.17
2023-02-18T09:13:34.458Z,11.57
2023-02-18T09:16:04.660Z,9.03
2023-02-18T09:18:35.489Z,10.77
2023-02-18T09:21:03.893Z,12.77
2023-02-18T09:23:34.285Z,3.80
2023-02-18T09:26:04.903Z,9.50
2023-02-18T09:28:32.699Z,10.43
2023-02-18T09:31:05.978Z,12.83
2023-02-18T09:33:37.752Z,10.50
2023-02-18T09:36:06.211Z,8.57
2023-02-18T09:38:34.628Z,11.23
2023-02-18T09:41:05.824Z,8.70
2023-02-18T09:43:37.104Z,14.97
2023-02-18T09:46:12.141Z,15.07
2023-02-18T09:48:43.638Z,9.40
2023-02-18T09:51:14.778Z,8.53
2023-02-18T09:53:44.959Z,7.37
2023-02-18T09:56:15.123Z,15.00
2023-02-18T09:58:45.350Z,9.43
2023-02-18T10:01:21.468Z,11.60
2023-02-18T10:03:50.813Z,11.50
2023-02-18T10:06:28.189Z,11.77
2023-02-18T10:08:58.480Z,7.20
2023-02-18T10:11:32.279Z,14.60
2023-02-18T10:14:02.658Z,16.57
2023-02-18T10:16:30.834Z,4.90
2023-02-18T10:19:05.088Z,6.77
2023-02-18T10:21:36.279Z,8.10
2023-02-18T10:24:08.679Z,12.97
2023-02-18T10:26:38.809Z,10.80
2023-02-18T10:29:14.728Z,9.80
2023-02-18T10:31:46.902Z,7.83
2023-02-18T10:34:24.409Z,7.77
2023-02-18T10:36:57.271Z,10.07
2023-02-18T10:39:40.654Z,5.80
2023-02-18T10:42:22.039Z,6.10
2023-02-18T10:44:59.949Z,11.50
2023-02-18T10:47:40.573Z,8.17
2023-02-18T10:50:25.675Z,12.77
2023-02-18T10:52:56.226Z,13.87
2023-02-18T10:55:36.736Z,13.13
2023-02-18T10:58:05.286Z,7.40
2023-02-18T11:00:40.597Z,11.57
2023-02-18T11:03:16.877Z,15.13
2023-02-18T11:05:47.802Z,8.13
2023-02-18T11:08:19.495Z,9.73
2023-02-18T11:10:49.325Z,4.77
2023-02-18T11:13:24.557Z,8.93
2023-02-18T11:15:59.675Z,12.47
2023-02-18T11:18:37.551Z,11.30
2023-02-18T11:21:21.475Z,3.37
2023-02-18T11:23:51.848Z,7.03
2023-02-18T11:26:27.734Z,13.27
2023-02-18T11:29:01.367Z,10.23
2023-02-18T11:31:42.338Z,13.57
2023-02-18T11:34:17.917Z,7.97
2023-02-18T11:36:48.532Z,8.47
2023-02-18T11:39:22.902Z,8.13
2023-02-18T11:41:57.700Z,11.83
2023-02-18T11:44:30.506Z,12.23
2023-02-18T11:47:02.420Z,9.73
2023-02-18T11:49:31.329Z,8.37
2023-02-18T11:52:15.476Z,9.33
2023-02-18T11:54:43.469Z,6.80
2023-02-18T11:57:15.158Z,6.77
2023-02-18T11:59:43.811Z,5.53
2023-02-18T12:02:29.365Z,7.77
2023-02-18T12:05:02.637Z,6.67
2023-02-18T12:07:43.759Z,7.70
2023-02-18T12:10:17.254Z,8.87
2023-02-18T12:12:48.619Z,12.77
2023-02-18T12:15:20.085Z,8.70
2023-02-18T12:18:01.210Z,9.07
2023-02-18T12:20:54.984Z,7.03
2023-02-18T12:23:33.225Z,9.97
2023-02-18T12:26:15.169Z,6.20
2023-02-18T12:28:55.708Z,7.07
2023-02-18T12:31:46.487Z,5.80
2023-02-18T12:34:32.504Z,9.07
2023-02-18T12:37:13.923Z,12.90
2023-02-18T12:40:05.600Z,6.33
2023-02-18T12:42:48.002Z,8.17
2023-02-18T12:45:40.851Z,5.43
2023-02-18T12:48:25.733Z,8.43
2023-02-18T12:51:12.428Z,9.23
2023-02-18T12:53:58.662Z,10.80
2023-02-18T12:56:46.524Z,12.00
2023-02-18T12:59:30.891Z,8.93
2023-02-18T13:02:08.960Z,5.47
2023-02-18T13:04:46.783Z,4.40
2023-02-18T13:07:49.762Z,6.20
2023-02-18T13:10:50.713Z,9.23
2023-02-18T13:13:22.235Z,10.77
2023-02-18T13:15:55.347Z,3.73
2023-02-18T13:18:29.941Z,4.70
2023-02-18T13:21:03.421Z,5.43
2023-02-18T13:23:36.865Z,10.10
2023-02-18T13:26:07.666Z,5.00
2023-02-18T13:28:43.740Z,10.10
2023-02-18T13:31:28.988Z,7.30
2023-02-18T13:34:03.553Z,8.77
2023-02-18T13:36:42.019Z,6.30
2023-02-18T13:39:19.268Z,6.50
2023-02-18T13:41:48.235Z,6.37
2023-02-18T13:44:57.122Z,13.77
2023-02-18T13:47:40.031Z,9.80
2023-02-18T13:50:32.861Z,5.40
2023-02-18T13:53:24.259Z,8.83
2023-02-18T13:55:57.060Z,5.87
2023-02-18T13:58:31.713Z,9.07
2023-02-18T14:01:05.439Z,9.60
2023-02-18T14:03:51.563Z,7.00
2023-02-18T14:06:20.805Z,10.47
2023-02-18T14:08:49.275Z,4.20
2023-02-18T14:11:35.470Z,6.60
2023-02-18T14:14:43.987Z,8.00
2023-02-18T14:17:36.166Z,4.87
2023-02-18T14:20:33.672Z,10.73
2023-02-18T14:23:01.674Z,6.17
2023-02-18T14:25:37.835Z,8.23
2023-02-18T14:28:37.897Z,5.87
2023-02-18T14:31:08.246Z,11.67
2023-02-18T14:33:38.151Z,9.87
2023-02-18T14:36:18.960Z,12.67
2023-02-18T14:38:54.072Z,12.43
2023-02-18T14:41:37.472Z,9.00
2023-02-18T14:44:42.697Z,7.10
2023-02-18T14:47:26.874Z,11.40
2023-02-18T14:49:59.020Z,8.03
2023-02-18T14:52:33.023Z,8.73
2023-02-18T14:55:03.425Z,10.33
2023-02-18T14:57:38.006Z,11.43
2023-02-18T15:00:07.669Z,11.30
2023-02-18T15:02:39.383Z,9.87
2023-02-18T15:05:17.529Z,10.13
2023-02-18T15:07:56.925Z,9.60
2023-02-18T15:10:34.397Z,8.70
2023-02-18T15:13:03.502Z,8.00
2023-02-18T15:15:33.780Z,9.83
2023-02-18T15:18:02.042Z,12.00
2023-02-18T15:20:34.655Z,8.93
2023-02-18T15:23:02.954Z,10.23
2023-02-18T15:25:31.276Z,12.90
2023-02-18T15:27:59.107Z,9.47
2023-02-18T15:30:29.835Z,9.63
2023-02-18T15:32:59.544Z,12.97
2023-02-18T15:35:31.495Z,6.00
2023-02-18T15:38:02.248Z,9.20
2023-02-18T15:40:32.750Z,12.50
2023-02-18T15:43:03.350Z,14.30
2023-02-18T15:45:34.480Z,11.37
2023-02-18T15:48:03.056Z,13.50
2023-02-18T15:50:33.982Z,12.80
2023-02-18T15:53:11.061Z,14.97
2023-02-18T15:55:41.134Z,13.27
2023-02-18T15:58:14.705Z,10.30
2023-02-18T16:00:48.270Z,15.73
2023-02-18T16:03:21.255Z,14.67
2023-02-18T16:05:49.092Z,15.80
2023-02-18T16:08:24.588Z,10.63
2023-02-18T16:10:57.365Z,10.40
2023-02-18T16:13:26.929Z,11.20
2023-02-18T16:15:54.847Z,11.80
2023-02-18T16:18:26.833Z,12.23
2023-02-18T16:20:56.694Z,11.70
2023-02-18T16:23:34.749Z,10.70
2023-02-18T16:26:24.164Z,9.80
2023-02-18T16:28:54.011Z,14.10
2023-02-18T16:31:22.163Z,15.10
2023-02-18T16:33:50.739Z,10.97
2023-02-18T16:36:18.957Z,14.53
2023-02-18T16:38:48.059Z,12.47
2023-02-18T16:41:16.055Z,13.57
2023-02-18T16:43:44.298Z,13.30
2023-02-18T16:46:17.333Z,16.17
2023-02-18T16:48:47.361Z,14.97
2023-02-18T16:51:18.917Z,8.17
2023-02-18T16:53:48.205Z,13.23
2023-02-18T16:56:17.450Z,11.03
2023-02-18T16:58:45.601Z,15.87
2023-02-18T17:01:23.399Z,10.57
2023-02-18T17:03:53.121Z,12.33
2023-02-18T17:06:21.838Z,13.23
2023-02-18T17:08:51.300Z,14.50
2023-02-18T17:11:22.310Z,13.10
2023-02-18T17:13:50.879Z,10.67
2023-02-18T17:16:18.867Z,10.60
2023-02-18T17:18:47.404Z,12.93
2023-02-18T17:21:16.618Z,15.77
2023-02-18T17:23:45.270Z,7.73
2023-02-18T17:26:17.852Z,9.80
2023-02-18T17:28:45.691Z,12.67
2023-02-18T17:31:18.197Z,17.00
2023-02-18T17:33:47.193Z,21.80
2023-02-18T17:36:15.000Z,13.50
2023-02-18T17:38:42.758Z,12.50
2023-02-18T17:41:14.006Z,16.30
2023-02-18T17:43:43.744Z,14.37
2023-02-18T17:46:14.403Z,12.87
2023-02-18T17:48:42.674Z,14.50
2023-02-18T17:51:21.336Z,15.27
2023-02-18T17:53:49.205Z,12.73
2023-02-18T17:56:16.953Z,17.80
2023-02-18T17:58:47.710Z,11.80
2023-02-18T18:01:17.132Z,15.63
2023-02-18T18:03:45.421Z,13.23
2023-02-18T18:06:17.727Z,10.70
2023-02-18T18:08:45.759Z,10.93
2023-02-18T18:11:16.544Z,10.10
2023-02-18T18:13:44.351Z,12.43
2023-02-18T18:16:14.734Z,9.80
2023-02-18T18:18:42.727Z,10.57
2023-02-18T18:21:19.983Z,17.37
2023-02-18T18:23:47.831Z,15.63
2023-02-18T18:26:15.616Z,14.33
2023-02-18T18:28:43.674Z,12.77
2023-02-18T18:31:16.269Z,15.07
2023-02-18T18:33:48.740Z,9.23
2023-02-18T18:36:18.643Z,17.13
2023-02-18T18:38:47.142Z,9.40
2023-02-18T18:41:17.066Z,15.10
2023-02-18T18:43:45.389Z,16.43
2023-02-18T18:46:13.509Z,16.43
2023-02-18T18:48:43.003Z,20.53
2023-02-18T18:51:16.535Z,19.37
2023-02-18T18:53:44.562Z,19.53
2023-02-18T18:56:13.520Z,20.17
2023-02-18T18:58:41.524Z,14.97
2023-02-18T19:01:17.270Z,13.00
2023-02-18T19:03:47.459Z,18.00
2023-02-18T19:06:16.991Z,18.20
2023-02-18T19:08:45.408Z,16.53
2023-02-18T19:11:14.281Z,20.60
2023-02-18T19:13:42.311Z,26.50
2023-02-18T19:16:18.296Z,20.97
2023-02-18T19:18:48.006Z,14.57
2023-02-18T19:21:16.711Z,15.50
2023-02-18T19:23:44.620Z,19.90
2023-02-18T19:26:13.708Z,16.93
2023-02-18T19:28:41.736Z,19.73
2023-02-18T19:31:11.061Z,16.13
2023-02-18T19:33:39.604Z,13.13
2023-02-18T19:36:11.058Z,10.77
2023-02-18T19:38:39.599Z,12.57
2023-02-18T19:41:09.084Z,15.67
2023-02-18T19:43:37.078Z,10.97
2023-02-18T19:46:10.109Z,10.93
2023-02-18T19:48:38.315Z,13.40
2023-02-18T19:51:07.216Z,12.60
2023-02-18T19:53:36.555Z,10.00
2023-02-18T19:56:06.807Z,16.93
2023-02-18T19:58:35.439Z,7.33
2023-02-18T20:01:03.337Z,11.13
2023-02-18T20:03:31.170Z,13.43
2023-02-18T20:05:58.914Z,11.80
2023-02-18T20:08:26.926Z,9.83
2023-02-18T20:10:58.790Z,14.63
2023-02-18T20:13:26.693Z,15.93
2023-02-18T20:15:54.641Z,21.23
2023-02-18T20:18:22.568Z,15.03
2023-02-18T20:20:50.859Z,15.47
2023-02-18T20:23:18.780Z,21.47
2023-02-18T20:25:47.632Z,19.73
2023-02-18T20:28:16.902Z,20.60
2023-02-18T20:30:45.270Z,17.70
2023-02-18T20:33:13.316Z,20.50
2023-02-18T20:35:41.091Z,20.13
2023-02-18T20:38:08.844Z,19.93
2023-02-18T20:40:36.647Z,18.03
2023-02-18T20:43:04.419Z,22.93
2023-02-18T20:45:33.705Z,19.83
2023-02-18T20:48:01.451Z,21.17
2023-02-18T20:50:29.625Z,22.80
2023-02-18T20:52:57.566Z,13.07
2023-02-18T20:55:25.373Z,19.83
2023-02-18T20:57:53.293Z,18.30
2023-02-18T21:00:21.291Z,17.83
2023-02-18T21:02:50.558Z,14.00
2023-02-18T21:05:19.640Z,14.83
2023-02-18T21:07:47.423Z,18.23
2023-02-18T21:10:15.213Z,22.87
2023-02-18T21:12:44.210Z,19.33
2023-02-18T21:15:12.147Z,16.43
2023-02-18T21:17:39.890Z,14.83
2023-02-18T21:20:09.860Z,20.33
2023-02-18T21:22:37.712Z,23.43
2023-02-18T21:25:06.079Z,15.13
2023-02-18T21:27:33.858Z,22.80
2023-02-18T21:30:01.657Z,16.43
2023-02-18T21:32:29.591Z,16.67
2023-02-18T21:34:57.465Z,18.23
2023-02-18T21:37:26.819Z,14.37
2023-02-18T21:39:54.620Z,21.00
2023-02-18T21:42:22.671Z,16.03
2023-02-18T21:44:50.512Z,19.27
2023-02-18T21:47:18.254Z,12.67
2023-02-18T21:49:46.046Z,18.20
2023-02-18T21:52:13.889Z,21.57
2023-02-18T21:54:45.472Z,15.50
2023-02-18T21:57:15.985Z,16.80
2023-02-18T21:59:45.308Z,22.80
2023-02-18T22:02:18.109Z,13.00
2023-02-18T22:04:46.175Z,16.40
2023-02-18T22:07:14.601Z,13.10
2023-02-18T22:09:44.585Z,14.73
2023-02-18T22:12:13.336Z,18.83
2023-02-18T22:14:41.222Z,12.17
2023-02-18T22:17:09.863Z,21.97
2023-02-18T22:19:37.992Z,19.67
2023-02-18T22:22:06.086Z,16.03
2023-02-18T22:24:34.277Z,21.73
2023-02-18T22:27:03.617Z,21.90
2023-02-18T22:29:32.949Z,16.67
2023-02-18T22:32:00.873Z,16.47
2023-02-18T22:34:28.760Z,17.17
2023-02-18T22:36:56.508Z,15.03
2023-02-18T22:39:24.385Z,12.17
2023-02-18T22:41:52.257Z,14.43
2023-02-18T22:44:22.928Z,11.10
2023-02-18T22:46:51.065Z,14.87
2023-02-18T22:49:18.892Z,12.67
2023-02-18T22:51:46.650Z,10.47
2023-02-18T22:54:16.139Z,11.93
2023-02-18T22:56:44.664Z,11.27
2023-02-18T22:59:13.699Z,9.77
2023-02-18T23:01:44.414Z,10.13
2023-02-18T23:04:14.677Z,9.87
2023-02-18T23:06:44.652Z,12.83
2023-02-18T23:09:15.760Z,10.00
2023-02-18T23:11:43.921Z,12.23
2023-02-18T23:14:21.407Z,13.57
2023-02-18T23:17:09.915Z,13.60
2023-02-18T23:19:38.519Z,14.07
2023-02-18T23:22:06.974Z,13.47
2023-02-18T23:24:35.741Z,10.77
2023-02-18T23:27:04.532Z,12.00
2023-02-18T23:29:32.637Z,12.97
2023-02-18T23:32:02.062Z,12.20
2023-02-18T23:34:30.706Z,10.67
2023-02-18T23:36:59.317Z,9.20
2023-02-18T23:39:27.613Z,6.17
2023-02-18T23:41:55.463Z,12.50
2023-02-18T23:44:24.903Z,9.87
2023-02-18T23:46:53.142Z,12.97
2023-02-18T23:49:25.733Z,14.27
2023-02-18T23:51:55.293Z,8.00
2023-02-18T23:54:23.829Z,10.70
2023-02-18T23:56:51.689Z,7.23
2023-02-18T23:59:19.887Z,10.53
